Flight Track Log - Related Links

Times and Time Zones

All times are in EDT time to prevent confusion due to time zone crossing. See the JBU24 flight status page for this flight to view local times or setup timezone preferences in your user account.

Time Position Orientation Groundspeed Altitude Reporting Facility
EDT Latitude Longitude Course Direction KTS MPH feet Rate Location/Type
Sat 08:27:12 PM 40.6000 -73.8000 114° Southeast 158 182 1,500  Level New York TRACON
Sat 08:28:13 PM 40.5833 -73.7500 114° Southeast 236 272 2,900 2,033 Climbing New York TRACON
Sat 08:29:13 PM 40.6333 -73.6667 52° Northeast 288 331 5,600 2,975 Climbing New York TRACON
Sat 08:30:12 PM 40.7167 -73.6167 24° Northeast 307 353 8,800 2,600 Climbing New York TRACON
Sat 08:31:13 PM 40.8000 -73.6000 North 313 360 10,800 1,983 Climbing New York TRACON
Sat 08:32:13 PM 40.9000 -73.6167 353° North 362 417 12,800 2,269 Climbing New York TRACON
Sat 08:33:12 PM 40.9500 -73.7167 304° West 347 399 15,300 1,657 Climbing New York TRACON
Sat 08:35:43 PM 41.0444 -74.0036 294° West 350 403 18,600 1,522 Climbing New York Center
Sat 08:36:41 PM 41.0850 -74.1186 295° West 345 397 20,600 1,700 Climbing New York Center
Sat 08:37:43 PM 41.1172 -74.2247 325° Northwest 345 397 22,000 677 Climbing New York Center
Sat 08:38:45 PM 41.1575 -74.3481 293° West 345 397 22,000  Level New York Center
Sat 08:39:41 PM 41.1953 -74.4714 292° West 358 412 22,000  Level New York Center
Sat 08:40:43 PM 41.2392 -74.5978 295° West 368 423 22,000  Level New York Center
Sat 08:41:42 PM 41.3083 -74.7122 309° West 381 438 22,000  Level New York Center
Sat 08:42:42 PM 41.3733 -74.8211 309° West 388 447 22,000  Level New York Center
Sat 08:43:41 PM 41.4406 -74.9275 310° West 383 441 22,000  Level New York Center
Sat 08:44:41 PM 41.5053 -75.0342 309° West 383 441 22,000  Level New York Center
Sat 08:45:41 PM 41.5700 -75.1436 308° West 383 441 22,000  Level New York Center
Sat 08:46:41 PM 41.6347 -75.2506 309° West 378 435 22,000  Level New York Center
Sat 08:47:41 PM 41.6994 -75.3578 309° West 378 435 22,000  Level New York Center
Sat 08:48:42 PM 41.7639 -75.4678 308° West 378 435 22,000  Level New York Center
Sat 08:49:42 PM 41.8300 -75.5808 308° West 385 443 22,000 -252 Level New York Center
Sat 08:50:41 PM 41.8961 -75.6944 308° West 385 443 21,500 -1,400 Descending New York Center
Sat 08:51:42 PM 41.9683 -75.8142 309° West 385 443 19,200 -2,066 Descending New York Center
Sat 08:52:43 PM 42.0225 -75.9103 307° West 375 432 17,300 -2,017 Descending New York Center
Sat 08:53:41 PM 42.0903 -76.0247 309° West 363 418 15,200 -2,000 Descending New York Center
Sat 08:54:43 PM 42.1592 -76.1142 316° Northwest 352 405 13,300 -1,835 Descending New York Center
Sat 08:55:42 PM 42.2583 -76.1278 354° North 335 386 11,500 -810 Descending New York Center
Sat 08:57:26 PM 42.4328 -76.1086 North 357 411 11,100 -145 Descending Boston Center
Sat 08:58:27 PM 42.5394 -76.0981 North 358 412 11,100 -246 Level Boston Center
Sat 08:59:28 PM 42.6325 -76.1206 350° North 339 390 10,600 -793 Descending Boston Center
Sat 09:00:28 PM 42.7106 -76.1561 341° North 285 328 9,500 -1,289 Descending Boston Center
Sat 09:01:29 PM 42.7869 -76.1864 344° North 281 323 8,000 -1,623 Descending Boston Center
Sat 09:02:30 PM 42.8608 -76.2192 342° North 282 325 6,200 -1,587 Descending Boston Center
Sat 09:03:30 PM 42.9347 -76.2519 342° North 276 318 4,800 -1,339 Descending Boston Center
Sat 09:04:31 PM 43.0025 -76.2817 342° North 260 299 3,500 -1,041 Descending Boston Center
Sat 09:05:31 PM 43.0683 -76.3114 342° North 238 274 2,700 -397 Descending Boston Center
Sat 09:06:32 PM 43.1236 -76.3406 339° North 207 238 2,700 -149 Level Boston Center
Sat 09:07:32 PM 43.1811 -76.3642 343° North 212 244 2,400 -300 Descending Boston Center

Login

Don't have an account? Register now (free) for customized features, flight alerts, and more!